sensor_id;sensor_type;location;lat;lon;timestamp;temperature;humidity
76211;DHT22;65003;49.518;11.280;2023-01-19T00:00:19;0.30;87.30
76211;DHT22;65003;49.518;11.280;2023-01-19T00:02:46;0.20;87.50
76211;DHT22;65003;49.518;11.280;2023-01-19T00:05:13;0.20;87.70
76211;DHT22;65003;49.518;11.280;2023-01-19T00:07:39;0.10;87.70
76211;DHT22;65003;49.518;11.280;2023-01-19T00:10:06;0.00;88.30
76211;DHT22;65003;49.518;11.280;2023-01-19T00:12:34;-0.10;88.80
76211;DHT22;65003;49.518;11.280;2023-01-19T00:15:00;-0.10;88.80
76211;DHT22;65003;49.518;11.280;2023-01-19T00:17:27;-0.20;88.90
76211;DHT22;65003;49.518;11.280;2023-01-19T00:19:54;-0.20;89.00
76211;DHT22;65003;49.518;11.280;2023-01-19T00:22:20;-0.10;88.50
76211;DHT22;65003;49.518;11.280;2023-01-19T00:24:47;-0.20;88.60
76211;DHT22;65003;49.518;11.280;2023-01-19T00:27:13;-0.20;88.30
76211;DHT22;65003;49.518;11.280;2023-01-19T00:29:40;-0.20;88.60
76211;DHT22;65003;49.518;11.280;2023-01-19T00:32:07;-0.20;88.30
76211;DHT22;65003;49.518;11.280;2023-01-19T00:34:33;-0.20;88.00
76211;DHT22;65003;49.518;11.280;2023-01-19T00:37:03;-0.20;87.90
76211;DHT22;65003;49.518;11.280;2023-01-19T00:39:29;-0.20;87.70
76211;DHT22;65003;49.518;11.280;2023-01-19T00:41:56;-0.20;87.90
76211;DHT22;65003;49.518;11.280;2023-01-19T00:44:28;-0.30;87.80
76211;DHT22;65003;49.518;11.280;2023-01-19T00:46:55;-0.30;88.20
76211;DHT22;65003;49.518;11.280;2023-01-19T00:49:21;-0.30;88.10
76211;DHT22;65003;49.518;11.280;2023-01-19T00:51:48;-0.40;88.20
76211;DHT22;65003;49.518;11.280;2023-01-19T00:54:14;-0.40;87.30
76211;DHT22;65003;49.518;11.280;2023-01-19T00:56:41;-0.40;87.70
76211;DHT22;65003;49.518;11.280;2023-01-19T00:59:09;-0.50;88.00
76211;DHT22;65003;49.518;11.280;2023-01-19T01:01:34;-0.50;88.20
76211;DHT22;65003;49.518;11.280;2023-01-19T01:04:01;-0.50;88.90
76211;DHT22;65003;49.518;11.280;2023-01-19T01:06:27;-0.30;89.40
76211;DHT22;65003;49.518;11.280;2023-01-19T01:08:54;-0.20;88.00
76211;DHT22;65003;49.518;11.280;2023-01-19T01:11:20;-0.10;87.70
76211;DHT22;65003;49.518;11.280;2023-01-19T01:13:47;0.20;86.90
76211;DHT22;65003;49.518;11.280;2023-01-19T01:16:14;0.20;87.30
76211;DHT22;65003;49.518;11.280;2023-01-19T01:18:40;0.20;87.20
76211;DHT22;65003;49.518;11.280;2023-01-19T01:21:07;0.20;87.30
76211;DHT22;65003;49.518;11.280;2023-01-19T01:23:33;0.10;86.00
76211;DHT22;65003;49.518;11.280;2023-01-19T01:26:00;0.00;85.90
76211;DHT22;65003;49.518;11.280;2023-01-19T01:28:26;-0.10;86.20
76211;DHT22;65003;49.518;11.280;2023-01-19T01:30:54;-0.20;86.90
76211;DHT22;65003;49.518;11.280;2023-01-19T01:33:20;-0.30;86.90
76211;DHT22;65003;49.518;11.280;2023-01-19T01:35:47;-0.40;87.20
76211;DHT22;65003;49.518;11.280;2023-01-19T01:38:14;-0.50;87.90
76211;DHT22;65003;49.518;11.280;2023-01-19T01:40:39;-0.60;87.90
76211;DHT22;65003;49.518;11.280;2023-01-19T01:43:10;-0.60;88.10
76211;DHT22;65003;49.518;11.280;2023-01-19T01:45:36;-0.60;87.40
76211;DHT22;65003;49.518;11.280;2023-01-19T01:48:21;-0.60;87.10
76211;DHT22;65003;49.518;11.280;2023-01-19T01:50:50;-0.60;87.80
76211;DHT22;65003;49.518;11.280;2023-01-19T01:53:22;-0.70;87.60
76211;DHT22;65003;49.518;11.280;2023-01-19T01:55:48;-0.70;87.90
76211;DHT22;65003;49.518;11.280;2023-01-19T01:58:15;-0.70;88.00
76211;DHT22;65003;49.518;11.280;2023-01-19T02:00:41;-0.70;87.90
76211;DHT22;65003;49.518;11.280;2023-01-19T02:03:14;-0.80;87.00
76211;DHT22;65003;49.518;11.280;2023-01-19T02:05:40;-0.80;87.20
76211;DHT22;65003;49.518;11.280;2023-01-19T02:08:12;-0.90;87.50
76211;DHT22;65003;49.518;11.280;2023-01-19T02:10:43;-0.90;88.00
76211;DHT22;65003;49.518;11.280;2023-01-19T02:13:15;-0.90;88.10
76211;DHT22;65003;49.518;11.280;2023-01-19T02:15:43;-0.90;88.10
76211;DHT22;65003;49.518;11.280;2023-01-19T02:18:10;-0.90;87.60
76211;DHT22;65003;49.518;11.280;2023-01-19T02:20:36;-1.00;87.60
76211;DHT22;65003;49.518;11.280;2023-01-19T02:23:04;-1.00;88.70
76211;DHT22;65003;49.518;11.280;2023-01-19T02:25:29;-0.90;89.70
76211;DHT22;65003;49.518;11.280;2023-01-19T02:27:56;-0.90;89.00
76211;DHT22;65003;49.518;11.280;2023-01-19T02:30:22;-0.90;86.80
76211;DHT22;65003;49.518;11.280;2023-01-19T02:32:49;-0.90;86.90
76211;DHT22;65003;49.518;11.280;2023-01-19T02:35:16;-0.90;86.00
76211;DHT22;65003;49.518;11.280;2023-01-19T02:37:42;-1.00;86.20
76211;DHT22;65003;49.518;11.280;2023-01-19T02:40:11;-1.10;87.20
76211;DHT22;65003;49.518;11.280;2023-01-19T02:42:52;-1.00;88.80
76211;DHT22;65003;49.518;11.280;2023-01-19T02:45:19;-0.90;90.20
76211;DHT22;65003;49.518;11.280;2023-01-19T02:47:46;-0.80;88.90
76211;DHT22;65003;49.518;11.280;2023-01-19T02:52:50;-0.60;87.70
76211;DHT22;65003;49.518;11.280;2023-01-19T02:55:17;-0.60;87.60
76211;DHT22;65003;49.518;11.280;2023-01-19T02:58:05;-0.70;87.60
76211;DHT22;65003;49.518;11.280;2023-01-19T03:00:50;-0.70;86.50
76211;DHT22;65003;49.518;11.280;2023-01-19T03:03:30;-0.70;88.20
76211;DHT22;65003;49.518;11.280;2023-01-19T03:06:21;-0.70;88.40
76211;DHT22;65003;49.518;11.280;2023-01-19T03:09:00;-0.60;88.20
76211;DHT22;65003;49.518;11.280;2023-01-19T03:11:26;-0.40;87.30
76211;DHT22;65003;49.518;11.280;2023-01-19T03:13:53;-0.40;86.40
76211;DHT22;65003;49.518;11.280;2023-01-19T03:18:54;-0.40;85.70
76211;DHT22;65003;49.518;11.280;2023-01-19T03:21:21;-0.50;85.30
76211;DHT22;65003;49.518;11.280;2023-01-19T03:23:46;-0.60;85.70
76211;DHT22;65003;49.518;11.280;2023-01-19T03:26:14;-0.70;85.40
76211;DHT22;65003;49.518;11.280;2023-01-19T03:28:40;-0.80;85.20
76211;DHT22;65003;49.518;11.280;2023-01-19T03:31:10;-0.90;85.60
76211;DHT22;65003;49.518;11.280;2023-01-19T03:33:36;-1.10;85.60
76211;DHT22;65003;49.518;11.280;2023-01-19T03:36:03;-1.10;88.50
76211;DHT22;65003;49.518;11.280;2023-01-19T03:38:30;-0.90;88.80
76211;DHT22;65003;49.518;11.280;2023-01-19T03:40:57;-0.90;87.70
76211;DHT22;65003;49.518;11.280;2023-01-19T03:43:22;-0.80;87.00
76211;DHT22;65003;49.518;11.280;2023-01-19T03:45:48;-0.80;87.20
76211;DHT22;65003;49.518;11.280;2023-01-19T03:48:15;-0.80;86.90
76211;DHT22;65003;49.518;11.280;2023-01-19T03:50:42;-0.80;86.90
76211;DHT22;65003;49.518;11.280;2023-01-19T03:53:10;-0.70;86.20
76211;DHT22;65003;49.518;11.280;2023-01-19T03:55:36;-0.70;86.40
76211;DHT22;65003;49.518;11.280;2023-01-19T03:58:02;-0.60;85.90
76211;DHT22;65003;49.518;11.280;2023-01-19T04:00:29;-0.60;86.40
76211;DHT22;65003;49.518;11.280;2023-01-19T04:02:55;-0.50;86.10
76211;DHT22;65003;49.518;11.280;2023-01-19T04:05:22;-0.50;85.80
76211;DHT22;65003;49.518;11.280;2023-01-19T04:07:49;-0.60;85.10
76211;DHT22;65003;49.518;11.280;2023-01-19T04:10:17;-0.70;85.60
76211;DHT22;65003;49.518;11.280;2023-01-19T04:12:44;-0.70;86.30
76211;DHT22;65003;49.518;11.280;2023-01-19T04:15:10;-0.70;85.10
76211;DHT22;65003;49.518;11.280;2023-01-19T04:17:37;-0.80;84.40
76211;DHT22;65003;49.518;11.280;2023-01-19T04:20:04;-0.90;85.50
76211;DHT22;65003;49.518;11.280;2023-01-19T04:22:31;-1.00;86.50
76211;DHT22;65003;49.518;11.280;2023-01-19T04:24:57;-1.00;86.70
76211;DHT22;65003;49.518;11.280;2023-01-19T04:27:24;-1.00;86.90
76211;DHT22;65003;49.518;11.280;2023-01-19T04:29:50;-1.00;85.90
76211;DHT22;65003;49.518;11.280;2023-01-19T04:32:17;-1.10;85.10
76211;DHT22;65003;49.518;11.280;2023-01-19T04:34:43;-1.20;85.50
76211;DHT22;65003;49.518;11.280;2023-01-19T04:37:10;-1.30;85.30
76211;DHT22;65003;49.518;11.280;2023-01-19T04:39:37;-1.50;85.20
76211;DHT22;65003;49.518;11.280;2023-01-19T04:42:03;-1.50;86.30
76211;DHT22;65003;49.518;11.280;2023-01-19T04:44:30;-1.60;86.60
76211;DHT22;65003;49.518;11.280;2023-01-19T04:46:56;-1.50;86.60
76211;DHT22;65003;49.518;11.280;2023-01-19T04:49:23;-1.60;86.50
76211;DHT22;65003;49.518;11.280;2023-01-19T04:51:51;-1.60;87.20
76211;DHT22;65003;49.518;11.280;2023-01-19T04:54:16;-1.60;86.50
76211;DHT22;65003;49.518;11.280;2023-01-19T04:56:43;-1.60;87.10
76211;DHT22;65003;49.518;11.280;2023-01-19T04:59:09;-1.60;86.50
76211;DHT22;65003;49.518;11.280;2023-01-19T05:01:36;-1.70;86.10
76211;DHT22;65003;49.518;11.280;2023-01-19T05:04:02;-1.60;87.40
76211;DHT22;65003;49.518;11.280;2023-01-19T05:06:29;-1.50;88.30
76211;DHT22;65003;49.518;11.280;2023-01-19T05:08:56;-1.30;87.00
76211;DHT22;65003;49.518;11.280;2023-01-19T05:11:22;-1.20;86.40
76211;DHT22;65003;49.518;11.280;2023-01-19T05:13:49;-1.30;86.30
76211;DHT22;65003;49.518;11.280;2023-01-19T05:16:15;-1.30;87.00
76211;DHT22;65003;49.518;11.280;2023-01-19T05:18:42;-1.30;86.90
76211;DHT22;65003;49.518;11.280;2023-01-19T05:21:09;-1.20;86.20
76211;DHT22;65003;49.518;11.280;2023-01-19T05:23:35;-1.20;86.40
76211;DHT22;65003;49.518;11.280;2023-01-19T05:26:02;-1.20;86.30
76211;DHT22;65003;49.518;11.280;2023-01-19T05:28:29;-1.30;85.50
76211;DHT22;65003;49.518;11.280;2023-01-19T05:30:55;-1.30;85.00
76211;DHT22;65003;49.518;11.280;2023-01-19T05:33:22;-1.40;85.30
76211;DHT22;65003;49.518;11.280;2023-01-19T05:35:50;-1.40;86.60
76211;DHT22;65003;49.518;11.280;2023-01-19T05:38:16;-1.40;86.50
76211;DHT22;65003;49.518;11.280;2023-01-19T05:40:43;-1.40;86.90
76211;DHT22;65003;49.518;11.280;2023-01-19T05:43:10;-1.20;86.30
76211;DHT22;65003;49.518;11.280;2023-01-19T05:45:36;-1.40;86.20
76211;DHT22;65003;49.518;11.280;2023-01-19T05:48:05;-1.40;86.50
76211;DHT22;65003;49.518;11.280;2023-01-19T05:50:31;-1.40;86.90
76211;DHT22;65003;49.518;11.280;2023-01-19T05:52:58;-1.40;87.20
76211;DHT22;65003;49.518;11.280;2023-01-19T05:55:25;-1.30;86.60
76211;DHT22;65003;49.518;11.280;2023-01-19T05:57:51;-1.30;86.80
76211;DHT22;65003;49.518;11.280;2023-01-19T06:00:18;-1.40;87.10
76211;DHT22;65003;49.518;11.280;2023-01-19T06:02:45;-1.30;87.30
76211;DHT22;65003;49.518;11.280;2023-01-19T06:05:12;-1.30;87.60
76211;DHT22;65003;49.518;11.280;2023-01-19T06:07:39;-1.20;87.90
76211;DHT22;65003;49.518;11.280;2023-01-19T06:10:06;-1.20;88.00
76211;DHT22;65003;49.518;11.280;2023-01-19T06:12:33;-1.20;88.50
76211;DHT22;65003;49.518;11.280;2023-01-19T06:14:59;-1.10;88.70
76211;DHT22;65003;49.518;11.280;2023-01-19T06:17:26;-1.00;88.10
76211;DHT22;65003;49.518;11.280;2023-01-19T06:19:52;-0.80;87.20
76211;DHT22;65003;49.518;11.280;2023-01-19T06:22:19;-0.60;87.60
76211;DHT22;65003;49.518;11.280;2023-01-19T06:24:46;-0.40;86.90
76211;DHT22;65003;49.518;11.280;2023-01-19T06:27:12;-0.20;86.60
76211;DHT22;65003;49.518;11.280;2023-01-19T06:29:39;-0.10;85.20
76211;DHT22;65003;49.518;11.280;2023-01-19T06:32:05;-0.10;84.60
76211;DHT22;65003;49.518;11.280;2023-01-19T06:34:32;0.00;84.50
76211;DHT22;65003;49.518;11.280;2023-01-19T06:36:59;0.00;84.00
76211;DHT22;65003;49.518;11.280;2023-01-19T06:39:25;0.00;83.50
76211;DHT22;65003;49.518;11.280;2023-01-19T06:41:52;0.00;82.70
76211;DHT22;65003;49.518;11.280;2023-01-19T06:44:18;-0.30;83.10
76211;DHT22;65003;49.518;11.280;2023-01-19T06:46:45;-0.50;83.40
76211;DHT22;65003;49.518;11.280;2023-01-19T06:49:11;-0.60;84.20
76211;DHT22;65003;49.518;11.280;2023-01-19T06:51:38;-0.80;85.20
76211;DHT22;65003;49.518;11.280;2023-01-19T06:54:05;-0.80;85.60
76211;DHT22;65003;49.518;11.280;2023-01-19T06:56:31;-0.80;85.30
76211;DHT22;65003;49.518;11.280;2023-01-19T06:58:58;-0.70;85.30
76211;DHT22;65003;49.518;11.280;2023-01-19T07:01:24;-0.70;85.10
76211;DHT22;65003;49.518;11.280;2023-01-19T07:03:51;-0.70;84.80
76211;DHT22;65003;49.518;11.280;2023-01-19T07:06:18;-0.80;85.20
76211;DHT22;65003;49.518;11.280;2023-01-19T07:08:44;-0.90;85.40
76211;DHT22;65003;49.518;11.280;2023-01-19T07:11:11;-1.10;86.00
76211;DHT22;65003;49.518;11.280;2023-01-19T07:13:38;-1.00;86.30
76211;DHT22;65003;49.518;11.280;2023-01-19T07:16:06;-1.00;86.40
76211;DHT22;65003;49.518;11.280;2023-01-19T07:18:32;-1.00;86.00
76211;DHT22;65003;49.518;11.280;2023-01-19T07:20:59;-0.90;85.40
76211;DHT22;65003;49.518;11.280;2023-01-19T07:23:25;-0.90;85.40
76211;DHT22;65003;49.518;11.280;2023-01-19T07:25:52;-1.00;85.80
76211;DHT22;65003;49.518;11.280;2023-01-19T07:28:18;-1.10;85.40
76211;DHT22;65003;49.518;11.280;2023-01-19T07:30:45;-1.10;85.80
76211;DHT22;65003;49.518;11.280;2023-01-19T07:33:12;-1.00;86.20
76211;DHT22;65003;49.518;11.280;2023-01-19T07:35:38;-0.90;86.20
76211;DHT22;65003;49.518;11.280;2023-01-19T07:38:05;-0.70;85.70
76211;DHT22;65003;49.518;11.280;2023-01-19T07:40:31;-0.50;85.10
76211;DHT22;65003;49.518;11.280;2023-01-19T07:42:58;-0.40;84.70
76211;DHT22;65003;49.518;11.280;2023-01-19T07:45:24;-0.30;84.60
76211;DHT22;65003;49.518;11.280;2023-01-19T07:47:51;-0.30;84.40
76211;DHT22;65003;49.518;11.280;2023-01-19T07:50:18;-0.10;84.20
76211;DHT22;65003;49.518;11.280;2023-01-19T07:52:46;-0.10;83.70
76211;DHT22;65003;49.518;11.280;2023-01-19T07:55:13;-0.10;84.10
76211;DHT22;65003;49.518;11.280;2023-01-19T07:57:39;-0.10;84.20
76211;DHT22;65003;49.518;11.280;2023-01-19T08:00:07;-0.10;84.00
76211;DHT22;65003;49.518;11.280;2023-01-19T08:02:33;0.10;84.00
76211;DHT22;65003;49.518;11.280;2023-01-19T08:05:00;0.30;83.20
76211;DHT22;65003;49.518;11.280;2023-01-19T08:07:26;0.60;82.30
76211;DHT22;65003;49.518;11.280;2023-01-19T08:09:53;0.80;81.70
76211;DHT22;65003;49.518;11.280;2023-01-19T08:12:20;0.90;81.40
76211;DHT22;65003;49.518;11.280;2023-01-19T08:14:46;1.00;81.00
76211;DHT22;65003;49.518;11.280;2023-01-19T08:17:13;1.10;80.50
76211;DHT22;65003;49.518;11.280;2023-01-19T08:19:40;1.20;79.90
76211;DHT22;65003;49.518;11.280;2023-01-19T08:22:06;1.20;79.90
76211;DHT22;65003;49.518;11.280;2023-01-19T08:24:33;1.20;79.70
76211;DHT22;65003;49.518;11.280;2023-01-19T08:27:00;1.10;80.30
76211;DHT22;65003;49.518;11.280;2023-01-19T08:29:26;0.40;80.20
76211;DHT22;65003;49.518;11.280;2023-01-19T08:31:52;0.90;81.10
76211;DHT22;65003;49.518;11.280;2023-01-19T08:34:19;1.00;81.20
76211;DHT22;65003;49.518;11.280;2023-01-19T08:36:45;1.10;81.20
76211;DHT22;65003;49.518;11.280;2023-01-19T08:39:12;1.20;80.70
76211;DHT22;65003;49.518;11.280;2023-01-19T08:41:39;1.30;80.60
76211;DHT22;65003;49.518;11.280;2023-01-19T08:44:05;1.30;80.60
76211;DHT22;65003;49.518;11.280;2023-01-19T08:46:32;1.40;80.50
76211;DHT22;65003;49.518;11.280;2023-01-19T08:48:58;1.40;80.50
76211;DHT22;65003;49.518;11.280;2023-01-19T08:51:25;1.40;80.60
76211;DHT22;65003;49.518;11.280;2023-01-19T08:53:51;1.40;80.60
76211;DHT22;65003;49.518;11.280;2023-01-19T08:56:18;1.50;80.40
76211;DHT22;65003;49.518;11.280;2023-01-19T08:58:45;1.60;79.70
76211;DHT22;65003;49.518;11.280;2023-01-19T09:01:11;1.70;79.50
76211;DHT22;65003;49.518;11.280;2023-01-19T09:03:38;1.70;79.10
76211;DHT22;65003;49.518;11.280;2023-01-19T09:06:05;1.90;78.80
76211;DHT22;65003;49.518;11.280;2023-01-19T09:08:31;2.10;78.10
76211;DHT22;65003;49.518;11.280;2023-01-19T09:10:58;2.30;77.60
76211;DHT22;65003;49.518;11.280;2023-01-19T09:13:24;2.30;77.40
76211;DHT22;65003;49.518;11.280;2023-01-19T09:15:51;2.30;77.20
76211;DHT22;65003;49.518;11.280;2023-01-19T09:18:19;2.10;77.70
76211;DHT22;65003;49.518;11.280;2023-01-19T09:20:45;2.00;78.00
76211;DHT22;65003;49.518;11.280;2023-01-19T09:23:11;2.10;78.20
76211;DHT22;65003;49.518;11.280;2023-01-19T09:25:37;2.00;78.50
76211;DHT22;65003;49.518;11.280;2023-01-19T09:28:04;1.90;79.10
76211;DHT22;65003;49.518;11.280;2023-01-19T09:30:31;2.00;78.80
76211;DHT22;65003;49.518;11.280;2023-01-19T09:33:05;2.00;78.30
76211;DHT22;65003;49.518;11.280;2023-01-19T09:35:32;2.10;78.60
76211;DHT22;65003;49.518;11.280;2023-01-19T09:37:58;2.20;78.20
76211;DHT22;65003;49.518;11.280;2023-01-19T09:40:25;2.60;78.50
76211;DHT22;65003;49.518;11.280;2023-01-19T09:42:56;2.50;77.30
76211;DHT22;65003;49.518;11.280;2023-01-19T09:45:42;2.60;76.70
76211;DHT22;65003;49.518;11.280;2023-01-19T09:48:08;2.70;76.00
76211;DHT22;65003;49.518;11.280;2023-01-19T09:50:33;2.90;76.30
76211;DHT22;65003;49.518;11.280;2023-01-19T09:53:03;3.00;76.70
76211;DHT22;65003;49.518;11.280;2023-01-19T09:55:28;2.90;76.70
76211;DHT22;65003;49.518;11.280;2023-01-19T09:57:55;3.00;75.80
76211;DHT22;65003;49.518;11.280;2023-01-19T10:00:21;2.90;76.40
76211;DHT22;65003;49.518;11.280;2023-01-19T10:02:52;3.00;75.70
76211;DHT22;65003;49.518;11.280;2023-01-19T10:05:24;3.10;75.20
76211;DHT22;65003;49.518;11.280;2023-01-19T10:08:00;3.30;74.20
76211;DHT22;65003;49.518;11.280;2023-01-19T10:10:25;3.30;74.10
76211;DHT22;65003;49.518;11.280;2023-01-19T10:13:15;3.90;73.90
76211;DHT22;65003;49.518;11.280;2023-01-19T10:15:44;4.70;71.70
76211;DHT22;65003;49.518;11.280;2023-01-19T10:18:12;5.20;69.30
76211;DHT22;65003;49.518;11.280;2023-01-19T10:20:41;5.30;68.50
76211;DHT22;65003;49.518;11.280;2023-01-19T10:23:17;5.00;68.60
76211;DHT22;65003;49.518;11.280;2023-01-19T10:25:42;4.80;69.00
76211;DHT22;65003;49.518;11.280;2023-01-19T10:28:09;4.30;70.30
76211;DHT22;65003;49.518;11.280;2023-01-19T10:30:35;4.10;71.00
76211;DHT22;65003;49.518;11.280;2023-01-19T10:33:02;4.00;72.20
76211;DHT22;65003;49.518;11.280;2023-01-19T10:35:28;3.90;73.60
76211;DHT22;65003;49.518;11.280;2023-01-19T10:37:57;3.90;74.60
76211;DHT22;65003;49.518;11.280;2023-01-19T10:40:30;3.80;74.70
76211;DHT22;65003;49.518;11.280;2023-01-19T10:42:55;3.80;74.10
76211;DHT22;65003;49.518;11.280;2023-01-19T10:45:23;3.80;74.20
76211;DHT22;65003;49.518;11.280;2023-01-19T10:47:49;3.70;73.70
76211;DHT22;65003;49.518;11.280;2023-01-19T10:50:21;3.70;74.70
76211;DHT22;65003;49.518;11.280;2023-01-19T10:52:50;3.60;75.00
76211;DHT22;65003;49.518;11.280;2023-01-19T10:55:23;3.50;74.80
76211;DHT22;65003;49.518;11.280;2023-01-19T10:57:48;3.50;75.20
76211;DHT22;65003;49.518;11.280;2023-01-19T11:02:49;3.30;76.40
76211;DHT22;65003;49.518;11.280;2023-01-19T11:05:24;3.30;76.50
76211;DHT22;65003;49.518;11.280;2023-01-19T11:07:50;3.30;76.40
76211;DHT22;65003;49.518;11.280;2023-01-19T11:10:21;3.30;75.00
76211;DHT22;65003;49.518;11.280;2023-01-19T11:13:01;3.30;75.70
76211;DHT22;65003;49.518;11.280;2023-01-19T11:18:21;3.20;75.20
76211;DHT22;65003;49.518;11.280;2023-01-19T11:20:45;3.30;74.70
76211;DHT22;65003;49.518;11.280;2023-01-19T11:23:24;3.20;74.90
76211;DHT22;65003;49.518;11.280;2023-01-19T11:25:48;3.30;75.00
76211;DHT22;65003;49.518;11.280;2023-01-19T11:28:19;3.40;74.90
76211;DHT22;65003;49.518;11.280;2023-01-19T11:30:53;3.40;74.50
76211;DHT22;65003;49.518;11.280;2023-01-19T11:33:31;3.50;74.50
76211;DHT22;65003;49.518;11.280;2023-01-19T11:36:00;3.50;73.70
76211;DHT22;65003;49.518;11.280;2023-01-19T11:38:19;3.40;73.90
76211;DHT22;65003;49.518;11.280;2023-01-19T11:41:00;3.40;74.40
76211;DHT22;65003;49.518;11.280;2023-01-19T11:43:27;3.40;74.80
76211;DHT22;65003;49.518;11.280;2023-01-19T11:45:54;3.40;75.10
76211;DHT22;65003;49.518;11.280;2023-01-19T11:50:53;3.40;74.60
76211;DHT22;65003;49.518;11.280;2023-01-19T11:53:21;3.30;75.10
76211;DHT22;65003;49.518;11.280;2023-01-19T11:55:55;3.30;74.90
76211;DHT22;65003;49.518;11.280;2023-01-19T11:58:21;3.40;74.80
76211;DHT22;65003;49.518;11.280;2023-01-19T12:00:55;3.40;74.50
76211;DHT22;65003;49.518;11.280;2023-01-19T12:03:29;3.40;74.80
76211;DHT22;65003;49.518;11.280;2023-01-19T12:05:59;3.40;74.20
76211;DHT22;65003;49.518;11.280;2023-01-19T12:08:26;3.50;74.10
76211;DHT22;65003;49.518;11.280;2023-01-19T12:10:51;3.50;74.50
76211;DHT22;65003;49.518;11.280;2023-01-19T12:13:19;3.50;74.10
76211;DHT22;65003;49.518;11.280;2023-01-19T12:15:45;3.60;73.90
76211;DHT22;65003;49.518;11.280;2023-01-19T12:18:17;3.60;73.30
76211;DHT22;65003;49.518;11.280;2023-01-19T12:20:43;3.70;73.40
76211;DHT22;65003;49.518;11.280;2023-01-19T12:23:18;3.70;73.50
76211;DHT22;65003;49.518;11.280;2023-01-19T12:28:30;3.80;72.60
76211;DHT22;65003;49.518;11.280;2023-01-19T12:30:56;3.80;72.60
76211;DHT22;65003;49.518;11.280;2023-01-19T12:33:37;3.80;72.40
76211;DHT22;65003;49.518;11.280;2023-01-19T12:36:36;3.90;72.50
76211;DHT22;65003;49.518;11.280;2023-01-19T12:38:49;4.00;72.60
76211;DHT22;65003;49.518;11.280;2023-01-19T12:41:19;4.00;72.00
76211;DHT22;65003;49.518;11.280;2023-01-19T12:43:46;4.00;72.20
76211;DHT22;65003;49.518;11.280;2023-01-19T12:46:23;3.90;72.10
76211;DHT22;65003;49.518;11.280;2023-01-19T12:48:45;3.80;73.00
76211;DHT22;65003;49.518;11.280;2023-01-19T12:51:27;3.70;73.70
76211;DHT22;65003;49.518;11.280;2023-01-19T12:53:55;3.60;73.10
76211;DHT22;65003;49.518;11.280;2023-01-19T12:56:26;3.50;73.90
76211;DHT22;65003;49.518;11.280;2023-01-19T12:58:52;3.60;72.90
76211;DHT22;65003;49.518;11.280;2023-01-19T13:01:18;3.70;73.20
76211;DHT22;65003;49.518;11.280;2023-01-19T13:04:01;3.70;72.60
76211;DHT22;65003;49.518;11.280;2023-01-19T13:07:08;3.80;72.30
76211;DHT22;65003;49.518;11.280;2023-01-19T13:09:30;3.90;72.50
76211;DHT22;65003;49.518;11.280;2023-01-19T13:14:35;3.80;72.20
76211;DHT22;65003;49.518;11.280;2023-01-19T13:17:01;3.80;73.10
76211;DHT22;65003;49.518;11.280;2023-01-19T13:19:34;3.70;74.20
76211;DHT22;65003;49.518;11.280;2023-01-19T13:21:58;3.60;73.60
76211;DHT22;65003;49.518;11.280;2023-01-19T13:24:28;3.50;74.10
76211;DHT22;65003;49.518;11.280;2023-01-19T13:26:53;3.50;73.90
76211;DHT22;65003;49.518;11.280;2023-01-19T13:29:29;3.50;73.90
76211;DHT22;65003;49.518;11.280;2023-01-19T13:31:57;3.70;73.80
76211;DHT22;65003;49.518;11.280;2023-01-19T13:34:23;3.60;74.00
76211;DHT22;65003;49.518;11.280;2023-01-19T13:36:51;3.70;74.50
76211;DHT22;65003;49.518;11.280;2023-01-19T13:39:20;3.90;74.80
76211;DHT22;65003;49.518;11.280;2023-01-19T13:41:45;4.20;74.80
76211;DHT22;65003;49.518;11.280;2023-01-19T13:44:13;4.40;73.90
76211;DHT22;65003;49.518;11.280;2023-01-19T13:46:39;4.40;73.60
76211;DHT22;65003;49.518;11.280;2023-01-19T13:49:15;4.20;73.00
76211;DHT22;65003;49.518;11.280;2023-01-19T13:51:39;4.10;73.80
76211;DHT22;65003;49.518;11.280;2023-01-19T13:54:12;3.90;74.50
76211;DHT22;65003;49.518;11.280;2023-01-19T13:56:32;3.80;75.40
76211;DHT22;65003;49.518;11.280;2023-01-19T13:59:01;3.80;74.70
76211;DHT22;65003;49.518;11.280;2023-01-19T14:01:27;3.70;74.80
76211;DHT22;65003;49.518;11.280;2023-01-19T14:03:53;3.70;75.00
76211;DHT22;65003;49.518;11.280;2023-01-19T14:06:22;3.80;74.70
76211;DHT22;65003;49.518;11.280;2023-01-19T14:09:03;3.80;73.80
76211;DHT22;65003;49.518;11.280;2023-01-19T14:11:14;4.00;73.10
76211;DHT22;65003;49.518;11.280;2023-01-19T14:13:42;4.10;73.30
76211;DHT22;65003;49.518;11.280;2023-01-19T14:16:16;4.10;71.90
76211;DHT22;65003;49.518;11.280;2023-01-19T14:18:42;4.20;72.30
76211;DHT22;65003;49.518;11.280;2023-01-19T14:21:11;4.30;72.00
76211;DHT22;65003;49.518;11.280;2023-01-19T14:23:47;4.30;71.60
76211;DHT22;65003;49.518;11.280;2023-01-19T14:28:53;4.20;72.20
76211;DHT22;65003;49.518;11.280;2023-01-19T14:31:20;4.10;72.40
76211;DHT22;65003;49.518;11.280;2023-01-19T14:33:47;4.10;72.10
76211;DHT22;65003;49.518;11.280;2023-01-19T14:36:31;4.00;73.00
76211;DHT22;65003;49.518;11.280;2023-01-19T14:38:55;3.90;72.50
76211;DHT22;65003;49.518;11.280;2023-01-19T14:41:29;3.90;72.20
76211;DHT22;65003;49.518;11.280;2023-01-19T14:43:53;3.90;72.90
76211;DHT22;65003;49.518;11.280;2023-01-19T14:46:20;4.00;72.00
76211;DHT22;65003;49.518;11.280;2023-01-19T14:48:47;4.00;72.30
76211;DHT22;65003;49.518;11.280;2023-01-19T14:51:16;4.10;72.30
76211;DHT22;65003;49.518;11.280;2023-01-19T14:53:45;4.10;72.70
76211;DHT22;65003;49.518;11.280;2023-01-19T14:56:09;4.00;72.20
76211;DHT22;65003;49.518;11.280;2023-01-19T14:58:35;3.90;72.90
76211;DHT22;65003;49.518;11.280;2023-01-19T15:01:02;3.90;72.50
76211;DHT22;65003;49.518;11.280;2023-01-19T15:03:28;3.80;72.90
76211;DHT22;65003;49.518;11.280;2023-01-19T15:05:55;3.70;73.40
76211;DHT22;65003;49.518;11.280;2023-01-19T15:08:24;3.50;73.80
76211;DHT22;65003;49.518;11.280;2023-01-19T15:10:48;3.40;74.60
76211;DHT22;65003;49.518;11.280;2023-01-19T15:13:16;3.40;74.70
76211;DHT22;65003;49.518;11.280;2023-01-19T15:15:41;3.40;74.20
76211;DHT22;65003;49.518;11.280;2023-01-19T15:18:09;3.50;74.20
76211;DHT22;65003;49.518;11.280;2023-01-19T15:20:34;3.50;73.90
76211;DHT22;65003;49.518;11.280;2023-01-19T15:23:01;3.50;73.10
76211;DHT22;65003;49.518;11.280;2023-01-19T15:25:28;3.60;73.50
76211;DHT22;65003;49.518;11.280;2023-01-19T15:27:56;3.60;73.30
76211;DHT22;65003;49.518;11.280;2023-01-19T15:30:22;3.70;73.60
76211;DHT22;65003;49.518;11.280;2023-01-19T15:32:49;3.60;73.90
76211;DHT22;65003;49.518;11.280;2023-01-19T15:35:16;3.60;73.80
76211;DHT22;65003;49.518;11.280;2023-01-19T15:37:42;3.60;73.40
76211;DHT22;65003;49.518;11.280;2023-01-19T15:40:10;3.60;73.50
76211;DHT22;65003;49.518;11.280;2023-01-19T15:42:37;3.30;73.20
76211;DHT22;65003;49.518;11.280;2023-01-19T15:47:36;3.60;73.30
76211;DHT22;65003;49.518;11.280;2023-01-19T15:50:02;3.50;73.50
76211;DHT22;65003;49.518;11.280;2023-01-19T15:52:29;3.40;73.60